Flight Track Log - Related Links

Times and Time Zones

All times are in EST time to prevent confusion due to time zone crossing. See the VH-HZE flight status page for this flight to view local times or setup timezone preferences in your user account.

Time Position Orientation Groundspeed Altitude Reporting Facility
EST Latitude Longitude Course Direction KTS MPH feet Rate Location/Type
Tue 07:21:58 PM -36.3480 144.0339 143° Southeast 7,500  Level Aus
Tue 07:22:45 PM -36.4077 144.0908 360° North 7,500  Level Aus
Tue 07:22:45 PM -36.4077 144.0908 143° Southeast 7,500  Level Aus
Tue 07:24:00 PM -36.5255 144.2032 143° Southeast  Level FlightAware
Tue 07:24:44 PM -36.4637 144.1442 360° North 7,500  Level Aus
Tue 07:24:58 PM -36.4637 144.1442 142° Southeast 7,500  Level Aus
Tue 07:25:00 PM -36.6196 144.2934 142° Southeast  Level FlightAware
Tue 07:26:00 PM -36.5610 144.2373 142° Southeast  Level FlightAware
Tue 07:26:53 PM -36.5685 144.2445 142° Southeast 7,500  Level Aus
Tue 07:27:00 PM -36.6551 144.3276 142° Southeast  Level FlightAware
Tue 07:27:49 PM -36.6143 144.2885 28° Northeast 7,500  Level Aus
Tue 07:27:49 PM -36.6143 144.2885 142° Southeast 7,500  Level Aus
Tue 07:28:00 PM -36.6736 144.3454 142° Southeast  Level FlightAware
Tue 07:29:00 PM -36.7256 144.3955 142° Southeast  Level FlightAware
Tue 07:30:00 PM -36.8196 144.4862 142° Southeast  Level FlightAware
Tue 07:31:00 PM -36.9135 144.5771 142° Southeast  Level FlightAware
Tue 07:32:00 PM -37.0074 144.6682 142° Southeast  Level FlightAware
Tue 07:33:00 PM -37.1012 144.7596 142° Southeast  Level FlightAware
Tue 07:34:00 PM -37.1949 144.8511 142° Southeast  Level FlightAware
Tue 07:34:03 PM -36.8719 144.5367 142° Southeast 7,500  Level Aus
Tue 07:35:00 PM -37.2885 144.9429 142° Southeast  Level FlightAware
Tue 07:36:00 PM -37.0549 144.7145 142° Southeast  Level FlightAware
Tue 07:37:00 PM -37.1487 144.8059 142° Southeast  Level FlightAware
Tue 07:38:00 PM -37.2423 144.8976 142° Southeast  Level FlightAware
Tue 07:39:00 PM -37.3359 144.9895 142° Southeast  Level FlightAware
Tue 07:40:00 PM -37.2423 144.8976 322° Northwest  Level FlightAware
Tue 07:41:00 PM -37.3359 144.9895 142° Southeast  Level FlightAware
Tue 07:42:00 PM -37.2423 144.8976 322° Northwest  Level FlightAware
Tue 07:42:53 PM -37.1931 144.8494 142° Southeast 7,500  Level Aus
Tue 07:43:00 PM -37.3359 144.9895 142° Southeast  Level FlightAware
Tue 07:44:00 PM -37.2977 144.9519 142° Southeast  Level FlightAware
Tue 07:44:53 PM -37.3000 144.9542 142° Southeast 7,500  Level Aus
Tue 07:45:00 PM -37.3912 145.0440 142° Southeast  Level FlightAware
Tue 07:46:00 PM -37.4327 144.9542 180° South  Level FlightAware
Tue 07:47:00 PM -37.3139 144.9542 North  Level FlightAware
Tue 07:48:00 PM -37.1951 144.9542 North  Level FlightAware
Tue 07:49:00 PM -37.3139 144.9542 180° South  Level FlightAware
Tue 07:50:00 PM -37.1951 144.9542 North  Level FlightAware
Tue 07:50:00 PM -37.4938 145.0916 331° Northwest 3,500  Level Aus
Tue 07:51:00 PM -37.3903 145.0181 331° Northwest  Level FlightAware
Tue 07:52:00 PM -37.2867 144.9448 331° Northwest  Level FlightAware
Tue 07:53:00 PM -37.3903 145.0181 151° Southeast  Level FlightAware
Tue 07:54:00 PM -37.3345 144.9786 151° Southeast  Level FlightAware
Tue 07:54:15 PM -37.6433 145.0198 228° Southwest 300  Level Aus
Tue 07:56:00 PM -37.7281 144.9019 48° Northeast  Level Estimated

Login

Don't have an account? Register now (free) for customized features, flight alerts, and more!